首页
METAR-TAF:

METAR-TAF

机场 :

朱諾, 阿拉斯加州, 美国

纬度: 58-21-17N, 经度: 134-34-34W, 海拔: 6米

当前天气观测

该预报发布于13分钟前的09:53 UTC
风速7节,风向
温度 9°C
湿度 87%
气压 1013 hPa
能見度: 16.1公里
少量云层高于3200英尺
多云层高于4500英尺
阴天层高于6500英尺

METAR: PAJN 010953Z 10007KT 10SM FEW032 BKN045 OVC065 09/07 A2991 RMK AO2 RAE32 SLP127 P0004 T00890072 $

时间: 02:06 (10:06 UTC)

预报

该预报发布于2小时和9分钟前的07:57 UTC
预报有效从01日的 08点(UTC)到 02日的 06点(UTC)
风速12节,风向东转东南
能見度: 10公里
少量云层高于2500英尺
多云层高于3500英尺
阴天层高于5000英尺
小阵雨
短暂存在
从 01日的 08点(UTC)到 01日的 12点(UTC)
风速12节,风向东转东南,有时为22节阵风
能見度: 9.7公里
少量云层高于1500英尺
多云层高于2500英尺
阴天层高于3500英尺
小阵雨, 轻雾
从 01日的 1500点(UTC)
风速13节,风向东转东南,有时为20节阵风
能見度: 10公里
阴天层高于2500英尺
小雨

TAF: PAJN 010757Z 0108/0206 11012KT P6SM -SHRA FEW025 BKN035 OVC050 TEMPO 0108/0112 12012G22KT 6SM -SHRA BR FEW015 BKN025 OVC035 FM011500 11013G20KT P6SM -RA OVC025

超过4000个机场的气象观测和天气预报(METAR&TAF报告)。

可查询的气象台以黄色和红色小点在地图上表示。

将鼠标移到小点上方,可查看气象台名称。

然后点击查看天气观测和预报。

如需切换地图:点击带黑十字的绿色按钮放大地图;点击带横线的绿色按钮缩小地图;或者点击绿色箭头查看邻近地区的地图。


METAR-TAF: